createdAt,value
2022-11-16T00:00:19.075Z,88.84
2022-11-16T00:01:29.068Z,88.35
2022-11-16T00:02:31.471Z,87.81
2022-11-16T00:03:37.122Z,87.97
2022-11-16T00:04:39.507Z,87.35
2022-11-16T00:05:41.698Z,87.48
2022-11-16T00:06:43.922Z,87.14
2022-11-16T00:07:46.345Z,87.39
2022-11-16T00:09:09.964Z,87.48
2022-11-16T00:10:12.651Z,87.47
2022-11-16T00:11:17.996Z,87.55
2022-11-16T00:12:20.175Z,87.39
2022-11-16T00:13:22.507Z,87.17
2022-11-16T00:14:27.474Z,87.22
2022-11-16T00:15:29.839Z,86.52
2022-11-16T00:16:32.843Z,86.06
2022-11-16T00:17:36.130Z,85.33
2022-11-16T00:18:38.309Z,85.47
2022-11-16T00:19:42.809Z,85.63
2022-11-16T00:20:45.646Z,85.54
2022-11-16T00:21:48.042Z,85.83
2022-11-16T00:22:50.190Z,85.30
2022-11-16T00:23:52.780Z,85.25
2022-11-16T00:24:54.907Z,85.10
2022-11-16T00:26:02.871Z,84.82
2022-11-16T00:27:05.243Z,84.80
2022-11-16T00:28:07.941Z,84.91
2022-11-16T00:29:21.884Z,84.80
2022-11-16T00:30:24.099Z,85.26
2022-11-16T00:31:30.011Z,85.27
2022-11-16T00:32:33.495Z,85.13
2022-11-16T00:33:39.084Z,85.60
2022-11-16T00:34:41.773Z,85.79
2022-11-16T00:35:43.925Z,86.07
2022-11-16T00:36:46.926Z,85.98
2022-11-16T00:37:51.189Z,86.23
2022-11-16T00:38:56.333Z,86.27
2022-11-16T00:39:58.524Z,86.75
2022-11-16T00:41:00.871Z,86.96
2022-11-16T00:42:05.797Z,86.36
2022-11-16T00:43:08.004Z,86.22
2022-11-16T00:44:12.997Z,86.26
2022-11-16T00:45:15.261Z,85.86
2022-11-16T00:46:17.449Z,85.42
2022-11-16T00:47:22.406Z,85.07
2022-11-16T00:48:24.792Z,85.07
2022-11-16T00:49:27.285Z,84.73
2022-11-16T00:50:29.670Z,84.68
2022-11-16T00:51:32.409Z,85.24
2022-11-16T00:52:37.306Z,85.39
2022-11-16T00:53:39.952Z,85.77
2022-11-16T00:54:42.895Z,86.37
2022-11-16T00:55:46.535Z,86.96
2022-11-16T00:56:50.557Z,88.16
2022-11-16T00:57:55.842Z,88.40
2022-11-16T00:59:00.000Z,88.11
2022-11-16T01:00:06.831Z,87.51
2022-11-16T01:01:11.648Z,88.32
2022-11-16T01:02:14.039Z,88.38
2022-11-16T01:03:19.505Z,88.09
2022-11-16T01:04:22.097Z,87.36
2022-11-16T01:05:24.614Z,87.62
2022-11-16T01:06:26.797Z,88.20
2022-11-16T01:07:31.278Z,87.93
2022-11-16T01:08:35.361Z,87.48
2022-11-16T01:09:37.946Z,87.28
2022-11-16T01:10:41.424Z,87.37
2022-11-16T01:12:04.614Z,87.17
2022-11-16T01:13:07.443Z,87.07
2022-11-16T01:14:11.044Z,87.16
2022-11-16T01:15:13.644Z,87.44
2022-11-16T01:16:17.919Z,88.26
2022-11-16T01:17:20.069Z,88.89
2022-11-16T01:18:22.603Z,89.73
2022-11-16T01:19:24.790Z,90.88
2022-11-16T01:20:29.448Z,91.55
2022-11-16T01:21:34.734Z,91.50
2022-11-16T01:22:38.351Z,91.38
2022-11-16T01:23:40.677Z,91.58
2022-11-16T01:24:42.882Z,91.77
2022-11-16T01:25:45.230Z,91.75
2022-11-16T01:26:47.512Z,91.56
2022-11-16T01:27:49.914Z,91.37
2022-11-16T01:29:00.119Z,91.23
2022-11-16T01:30:09.599Z,90.49
2022-11-16T01:31:14.997Z,90.16
2022-11-16T01:32:17.645Z,89.43
2022-11-16T01:33:23.028Z,89.58
2022-11-16T01:34:26.094Z,89.89
2022-11-16T01:35:33.494Z,89.64
2022-11-16T01:36:36.775Z,89.47
2022-11-16T01:37:40.274Z,90.01
2022-11-16T01:38:44.026Z,90.63
2022-11-16T01:39:49.451Z,91.30
2022-11-16T01:40:52.057Z,90.94
2022-11-16T01:41:57.248Z,90.75
2022-11-16T01:42:59.552Z,91.32
2022-11-16T01:44:02.823Z,91.96
2022-11-16T01:45:27.825Z,92.25
2022-11-16T01:46:32.990Z,92.55
2022-11-16T01:47:36.120Z,92.74
2022-11-16T01:48:38.794Z,92.85
2022-11-16T01:49:46.111Z,93.66
2022-11-16T01:50:50.100Z,93.43
2022-11-16T01:52:02.008Z,93.05
2022-11-16T01:53:10.762Z,93.06
2022-11-16T01:54:22.043Z,93.05
2022-11-16T01:55:33.624Z,92.87
2022-11-16T01:57:03.286Z,92.67
2022-11-16T01:58:28.661Z,92.34
2022-11-16T01:59:41.085Z,92.61
2022-11-16T02:00:52.263Z,92.61
2022-11-16T02:02:17.544Z,92.29
2022-11-16T02:03:21.508Z,92.18
2022-11-16T02:04:27.146Z,92.02
2022-11-16T02:05:42.051Z,91.72
2022-11-16T02:07:14.947Z,91.33
2022-11-16T02:09:03.802Z,91.04
2022-11-16T02:10:46.979Z,91.65
2022-11-16T02:12:04.131Z,91.63
2022-11-16T02:13:29.087Z,92.25
2022-11-16T02:14:51.465Z,92.50
2022-11-16T02:16:06.108Z,92.29
2022-11-16T02:17:48.572Z,92.42
2022-11-16T02:19:06.167Z,93.57
2022-11-16T02:20:34.804Z,93.24
2022-11-16T02:21:45.183Z,93.11
2022-11-16T02:23:15.090Z,92.58
2022-11-16T02:24:20.035Z,92.05
2022-11-16T02:25:25.408Z,92.00
2022-11-16T02:27:04.937Z,91.75
2022-11-16T02:28:29.127Z,91.07
2022-11-16T02:29:33.817Z,91.02
2022-11-16T02:30:38.388Z,90.75
2022-11-16T02:32:05.284Z,90.26
2022-11-16T02:33:13.395Z,90.60
2022-11-16T02:34:21.216Z,91.58
2022-11-16T02:35:39.962Z,91.97
2022-11-16T02:36:47.390Z,92.39
2022-11-16T02:37:58.303Z,92.75
2022-11-16T02:39:07.575Z,92.86
2022-11-16T02:40:12.996Z,92.69
2022-11-16T02:41:20.383Z,92.92
2022-11-16T02:42:34.188Z,93.38
2022-11-16T02:43:43.552Z,93.61
2022-11-16T02:44:49.907Z,93.42
2022-11-16T02:45:55.799Z,93.25
2022-11-16T02:47:03.687Z,93.46
2022-11-16T02:48:14.148Z,94.08
2022-11-16T02:49:19.280Z,94.01
2022-11-16T02:50:23.852Z,94.04
2022-11-16T02:51:30.599Z,94.42
2022-11-16T02:52:36.993Z,94.73
2022-11-16T02:53:59.044Z,94.81
2022-11-16T02:55:01.756Z,94.91
2022-11-16T02:56:05.301Z,94.87
2022-11-16T02:57:07.439Z,94.97
2022-11-16T02:58:12.498Z,95.28
2022-11-16T02:59:17.672Z,95.07
2022-11-16T03:00:30.619Z,94.48
2022-11-16T03:01:38.434Z,93.80
2022-11-16T03:02:56.829Z,93.61
2022-11-16T03:04:08.654Z,93.10
2022-11-16T03:05:35.480Z,92.84
2022-11-16T03:06:43.831Z,92.20
2022-11-16T03:07:52.283Z,92.47
2022-11-16T03:09:21.133Z,92.84
2022-11-16T03:10:49.755Z,93.44
2022-11-16T03:12:02.448Z,93.03
2022-11-16T03:13:12.785Z,92.70
2022-11-16T03:14:20.477Z,92.10
2022-11-16T03:15:23.450Z,92.28
2022-11-16T03:16:37.430Z,92.29
2022-11-16T03:17:44.501Z,92.04
2022-11-16T03:18:50.137Z,91.77
2022-11-16T03:20:06.802Z,92.50
2022-11-16T03:21:21.795Z,92.87
2022-11-16T03:22:31.169Z,92.80
2022-11-16T03:23:33.985Z,92.42
2022-11-16T03:24:36.733Z,91.85
2022-11-16T03:25:47.226Z,91.70
2022-11-16T03:26:58.003Z,92.53
2022-11-16T03:28:23.851Z,93.71
2022-11-16T03:29:55.551Z,94.09
2022-11-16T03:31:04.249Z,93.91
2022-11-16T03:32:20.289Z,92.96
2022-11-16T03:33:28.181Z,92.63
2022-11-16T03:34:35.770Z,93.16
2022-11-16T03:36:03.571Z,93.35
2022-11-16T03:37:09.115Z,93.65
2022-11-16T03:38:15.598Z,93.10
2022-11-16T03:39:29.617Z,93.06
2022-11-16T03:40:34.339Z,93.48
2022-11-16T03:41:41.451Z,93.80
2022-11-16T03:42:46.009Z,94.21
2022-11-16T03:43:49.363Z,94.27
2022-11-16T03:44:52.434Z,93.75
2022-11-16T03:45:55.296Z,93.31
2022-11-16T03:46:57.710Z,93.12
2022-11-16T03:48:00.623Z,93.07
2022-11-16T03:49:03.092Z,92.78
2022-11-16T03:50:11.250Z,91.90
2022-11-16T03:51:15.071Z,91.56
2022-11-16T03:52:19.025Z,91.36
2022-11-16T03:53:23.249Z,90.91
2022-11-16T03:54:26.370Z,91.31
2022-11-16T03:55:28.620Z,91.49
2022-11-16T03:56:30.916Z,91.72
2022-11-16T03:57:33.129Z,91.85
2022-11-16T03:58:35.860Z,92.04
2022-11-16T03:59:38.454Z,91.93
2022-11-16T04:00:40.685Z,91.51
2022-11-16T04:01:46.320Z,90.87
2022-11-16T04:02:49.955Z,91.48
2022-11-16T04:03:55.654Z,91.57
2022-11-16T04:05:17.928Z,91.51
2022-11-16T04:06:38.671Z,92.52
2022-11-16T04:07:59.324Z,92.82
2022-11-16T04:09:10.645Z,93.11
2022-11-16T04:10:33.346Z,92.20
2022-11-16T04:11:54.685Z,91.82
2022-11-16T04:13:17.662Z,91.29
2022-11-16T04:14:41.362Z,91.54
2022-11-16T04:16:05.741Z,91.47
2022-11-16T04:17:37.983Z,91.25
2022-11-16T04:18:59.073Z,91.52
2022-11-16T04:20:19.866Z,92.08
2022-11-16T04:21:43.202Z,92.73
2022-11-16T04:23:19.314Z,93.18
2022-11-16T04:24:25.471Z,92.78
2022-11-16T04:25:31.993Z,92.23
2022-11-16T04:26:58.122Z,92.01
2022-11-16T04:28:16.526Z,91.21
2022-11-16T04:29:27.714Z,90.97
2022-11-16T04:30:50.247Z,90.73
2022-11-16T04:32:12.209Z,90.70
2022-11-16T04:33:33.225Z,90.49
2022-11-16T04:34:55.596Z,90.20
2022-11-16T04:36:20.549Z,90.24
2022-11-16T04:37:41.907Z,90.40
2022-11-16T04:38:44.277Z,90.96
2022-11-16T04:39:46.457Z,91.76
2022-11-16T04:40:48.701Z,92.06
2022-11-16T04:42:09.741Z,92.04
2022-11-16T04:43:12.321Z,91.96
2022-11-16T04:44:18.346Z,91.77
2022-11-16T04:45:42.457Z,91.42
2022-11-16T04:47:04.597Z,91.05
2022-11-16T04:48:08.852Z,91.04
2022-11-16T04:49:12.381Z,91.34
2022-11-16T04:50:14.700Z,91.69
2022-11-16T04:51:17.875Z,92.29
2022-11-16T04:52:20.268Z,92.47
2022-11-16T04:53:27.200Z,91.76
2022-11-16T04:54:43.040Z,91.81
2022-11-16T04:55:45.516Z,91.49
2022-11-16T04:56:49.411Z,90.85
2022-11-16T04:57:51.712Z,90.69
2022-11-16T04:58:55.487Z,90.83
2022-11-16T04:59:57.817Z,90.71
2022-11-16T05:01:00.430Z,90.35
2022-11-16T05:02:10.163Z,90.16
2022-11-16T05:03:26.351Z,90.09
2022-11-16T05:04:28.958Z,89.76
2022-11-16T05:05:31.181Z,89.84
2022-11-16T05:06:35.149Z,89.28
2022-11-16T05:07:37.572Z,89.97
2022-11-16T05:08:46.552Z,90.48
2022-11-16T05:09:51.039Z,90.47
2022-11-16T05:10:54.338Z,90.33
2022-11-16T05:11:56.547Z,91.06
2022-11-16T05:12:58.954Z,91.54
2022-11-16T05:14:02.930Z,91.42
2022-11-16T05:15:07.053Z,91.11
2022-11-16T05:16:09.378Z,90.50
2022-11-16T05:17:12.144Z,89.42
2022-11-16T05:18:14.624Z,89.82
2022-11-16T05:19:35.660Z,90.10
2022-11-16T05:20:56.627Z,89.77
2022-11-16T05:21:59.381Z,89.46
2022-11-16T05:23:01.656Z,89.36
2022-11-16T05:24:27.105Z,89.05
2022-11-16T05:25:34.024Z,89.20
2022-11-16T05:26:40.335Z,89.88
2022-11-16T05:27:42.918Z,90.29
2022-11-16T05:28:45.143Z,90.63
2022-11-16T05:29:49.762Z,90.98
2022-11-16T05:30:54.439Z,91.56
2022-11-16T05:32:00.037Z,92.12
2022-11-16T05:33:02.632Z,91.85
2022-11-16T05:34:10.063Z,92.15
2022-11-16T05:35:12.899Z,91.88
2022-11-16T05:36:15.142Z,91.97
2022-11-16T05:37:19.117Z,92.39
2022-11-16T05:38:21.726Z,92.70
2022-11-16T05:39:28.333Z,92.65
2022-11-16T05:40:33.077Z,92.24
2022-11-16T05:41:36.293Z,92.65
2022-11-16T05:42:38.920Z,92.83
2022-11-16T05:43:41.210Z,92.63
2022-11-16T05:44:49.521Z,92.09
2022-11-16T05:45:52.563Z,91.50
2022-11-16T05:46:56.099Z,91.21
2022-11-16T05:47:58.810Z,91.08
2022-11-16T05:49:01.784Z,91.20
2022-11-16T05:50:04.427Z,90.68
2022-11-16T05:51:12.370Z,90.84
2022-11-16T05:52:14.646Z,91.25
2022-11-16T05:53:19.430Z,91.09
2022-11-16T05:54:27.389Z,90.76
2022-11-16T05:55:31.174Z,90.46
2022-11-16T05:56:35.206Z,90.21
2022-11-16T05:57:38.011Z,90.73
2022-11-16T05:58:40.956Z,90.90
2022-11-16T05:59:43.909Z,91.60
2022-11-16T06:00:47.000Z,92.42
2022-11-16T06:01:50.783Z,92.97
2022-11-16T06:02:53.138Z,93.27
2022-11-16T06:04:03.162Z,93.56
2022-11-16T06:05:07.897Z,93.81
2022-11-16T06:06:10.824Z,94.14
2022-11-16T06:07:13.438Z,94.37
2022-11-16T06:08:16.199Z,94.73
2022-11-16T06:09:18.820Z,95.02
2022-11-16T06:10:21.999Z,94.82
2022-11-16T06:11:28.290Z,94.69
2022-11-16T06:12:34.150Z,94.15
2022-11-16T06:13:36.866Z,93.26
2022-11-16T06:14:39.129Z,92.92
2022-11-16T06:15:41.577Z,93.01
2022-11-16T06:16:45.069Z,93.01
2022-11-16T06:17:47.294Z,92.62
2022-11-16T06:18:50.760Z,92.37
2022-11-16T06:19:54.959Z,92.72
2022-11-16T06:20:57.430Z,93.15
2022-11-16T06:21:59.798Z,93.08
2022-11-16T06:23:04.256Z,92.96
2022-11-16T06:24:09.227Z,92.96
2022-11-16T06:25:12.102Z,93.42
2022-11-16T06:26:17.739Z,93.28
2022-11-16T06:27:21.170Z,92.73
2022-11-16T06:28:23.872Z,91.84
2022-11-16T06:29:26.467Z,92.38
2022-11-16T06:30:29.172Z,92.50
2022-11-16T06:31:31.395Z,92.68
2022-11-16T06:32:36.298Z,93.29
2022-11-16T06:33:39.903Z,93.34
2022-11-16T06:34:49.031Z,93.71
2022-11-16T06:35:51.547Z,93.74
2022-11-16T06:36:57.384Z,94.00
2022-11-16T06:37:59.860Z,94.04
2022-11-16T06:39:02.480Z,93.92
2022-11-16T06:40:11.333Z,93.38
2022-11-16T06:41:17.336Z,93.10
2022-11-16T06:42:23.794Z,93.35
2022-11-16T06:43:27.763Z,93.31
2022-11-16T06:44:30.800Z,93.54
2022-11-16T06:45:36.822Z,93.64
2022-11-16T06:46:40.313Z,93.90
2022-11-16T06:47:42.933Z,94.10
2022-11-16T06:48:45.464Z,94.29
2022-11-16T06:49:49.457Z,94.54
2022-11-16T06:50:56.398Z,94.52
2022-11-16T06:51:58.827Z,94.20
2022-11-16T06:53:01.930Z,94.14
2022-11-16T06:54:06.241Z,93.84
2022-11-16T06:55:09.043Z,94.14
2022-11-16T06:56:15.016Z,93.66
2022-11-16T06:57:26.599Z,92.38
2022-11-16T06:58:31.602Z,92.37
2022-11-16T06:59:34.349Z,92.79
2022-11-16T07:00:36.836Z,92.87
2022-11-16T07:01:39.107Z,92.41
2022-11-16T07:02:47.172Z,92.17
2022-11-16T07:03:52.742Z,92.00
2022-11-16T07:04:59.249Z,91.68
2022-11-16T07:06:11.593Z,91.77
2022-11-16T07:07:16.379Z,92.71
2022-11-16T07:08:19.048Z,93.00
2022-11-16T07:09:21.546Z,93.60
2022-11-16T07:10:24.634Z,94.00
2022-11-16T07:11:28.151Z,94.45
2022-11-16T07:12:30.336Z,94.83
2022-11-16T07:13:35.234Z,95.00
2022-11-16T07:14:38.304Z,94.72
2022-11-16T07:15:43.303Z,94.89
2022-11-16T07:16:45.548Z,95.49
2022-11-16T07:17:47.900Z,95.49
2022-11-16T07:18:50.265Z,95.60
2022-11-16T07:19:52.601Z,95.97
2022-11-16T07:20:55.049Z,95.81
2022-11-16T07:21:57.857Z,96.14
2022-11-16T07:23:01.558Z,96.17
2022-11-16T07:24:04.794Z,96.35
2022-11-16T07:25:08.359Z,96.07
2022-11-16T07:26:11.449Z,95.63
2022-11-16T07:27:34.115Z,94.75
2022-11-16T07:28:36.605Z,93.75
2022-11-16T07:29:39.533Z,93.99
2022-11-16T07:31:10.784Z,94.02
2022-11-16T07:32:13.488Z,94.04
2022-11-16T07:33:39.118Z,93.51
2022-11-16T07:35:13.394Z,93.33
2022-11-16T07:36:16.846Z,93.49
2022-11-16T07:37:19.198Z,94.17
2022-11-16T07:38:21.466Z,94.49
2022-11-16T07:39:23.930Z,94.85
2022-11-16T07:40:26.356Z,95.65
2022-11-16T07:41:28.971Z,95.78
2022-11-16T07:42:45.880Z,95.38
2022-11-16T07:44:01.662Z,94.78
2022-11-16T07:45:08.142Z,94.63
2022-11-16T07:47:44.743Z,95.98
2022-11-16T07:48:57.179Z,96.01
2022-11-16T07:50:26.103Z,96.08
2022-11-16T07:51:28.615Z,96.23
2022-11-16T07:52:51.445Z,96.22
2022-11-16T07:53:57.314Z,96.21
2022-11-16T07:54:59.598Z,95.83
2022-11-16T07:56:04.055Z,95.90
2022-11-16T07:57:08.255Z,95.73
2022-11-16T07:58:10.605Z,95.28
2022-11-16T07:59:14.053Z,94.94
2022-11-16T08:00:21.120Z,94.02
2022-11-16T08:01:33.400Z,93.55
2022-11-16T08:02:35.919Z,93.43
2022-11-16T08:03:39.733Z,93.34
2022-11-16T08:04:42.762Z,93.05
2022-11-16T08:05:45.444Z,92.61
2022-11-16T08:06:50.082Z,92.80
2022-11-16T08:07:53.699Z,92.32
2022-11-16T08:08:59.635Z,92.00
2022-11-16T08:10:02.896Z,92.22
2022-11-16T08:11:08.166Z,92.09
2022-11-16T08:12:10.618Z,91.71
2022-11-16T08:13:13.128Z,91.23
2022-11-16T08:14:19.188Z,92.16
2022-11-16T08:15:24.856Z,93.06
2022-11-16T08:16:27.527Z,93.74
2022-11-16T08:17:38.879Z,94.78
2022-11-16T08:18:44.243Z,94.83
2022-11-16T08:19:46.897Z,94.87
2022-11-16T08:20:51.187Z,94.58
2022-11-16T08:21:53.599Z,94.71
2022-11-16T08:23:01.032Z,95.05
2022-11-16T08:24:06.363Z,94.99
2022-11-16T08:25:12.135Z,94.93
2022-11-16T08:26:19.641Z,94.72
2022-11-16T08:27:28.581Z,93.74
2022-11-16T08:28:33.477Z,93.40
2022-11-16T08:29:35.890Z,93.41
2022-11-16T08:30:40.775Z,93.30
2022-11-16T08:31:44.952Z,94.17
2022-11-16T08:32:49.668Z,94.51
2022-11-16T08:33:52.671Z,95.42
2022-11-16T08:34:56.133Z,95.95
2022-11-16T08:36:02.606Z,96.00
2022-11-16T08:37:04.886Z,95.58
2022-11-16T08:38:15.059Z,96.00
2022-11-16T08:39:17.427Z,95.53
2022-11-16T08:40:19.613Z,95.84
2022-11-16T08:41:23.212Z,96.28
2022-11-16T08:42:25.748Z,96.31
2022-11-16T08:43:31.175Z,96.25
2022-11-16T08:44:33.364Z,96.10
2022-11-16T08:45:40.305Z,95.69
2022-11-16T08:46:42.645Z,95.77
2022-11-16T08:48:03.447Z,95.55
2022-11-16T08:49:08.540Z,95.26
2022-11-16T08:50:10.794Z,94.65
2022-11-16T08:51:18.567Z,93.91
2022-11-16T08:52:26.258Z,93.07
2022-11-16T08:53:30.281Z,93.06
2022-11-16T08:54:32.742Z,93.18
2022-11-16T08:55:35.206Z,93.73
2022-11-16T08:56:37.841Z,94.15
2022-11-16T08:57:40.946Z,93.93
2022-11-16T08:58:55.261Z,93.35
2022-11-16T09:00:00.430Z,93.27
2022-11-16T09:01:14.909Z,92.63
2022-11-16T09:02:25.224Z,92.62
2022-11-16T09:03:27.674Z,92.74
2022-11-16T09:04:35.698Z,92.93
2022-11-16T09:05:39.167Z,93.26
2022-11-16T09:06:41.371Z,93.57
2022-11-16T09:07:45.750Z,94.27
2022-11-16T09:08:47.934Z,94.84
2022-11-16T09:09:50.378Z,95.59
2022-11-16T09:10:52.600Z,95.88
2022-11-16T09:11:55.366Z,96.03
2022-11-16T09:12:57.786Z,95.80
2022-11-16T09:14:00.047Z,95.80
2022-11-16T09:15:02.818Z,95.77
2022-11-16T09:16:05.568Z,96.32
2022-11-16T09:17:07.713Z,96.49
2022-11-16T09:18:10.096Z,96.56
2022-11-16T09:19:12.261Z,96.08
2022-11-16T09:20:14.900Z,95.88
2022-11-16T09:21:24.917Z,95.31
2022-11-16T09:22:27.128Z,95.57
2022-11-16T09:23:29.691Z,95.58
2022-11-16T09:24:32.149Z,95.93
2022-11-16T09:25:34.383Z,95.91
2022-11-16T09:26:36.547Z,95.71
2022-11-16T09:27:38.688Z,95.04
2022-11-16T09:28:41.098Z,94.71
2022-11-16T09:29:43.663Z,94.57
2022-11-16T09:30:48.594Z,94.79
2022-11-16T09:31:50.799Z,94.19
2022-11-16T09:32:53.103Z,93.49
2022-11-16T09:33:58.484Z,93.61
2022-11-16T09:35:00.925Z,94.01
2022-11-16T09:36:08.227Z,93.94
2022-11-16T09:37:10.602Z,94.10
2022-11-16T09:38:17.656Z,93.96
2022-11-16T09:39:31.103Z,93.77
2022-11-16T09:40:37.918Z,93.63
2022-11-16T09:42:08.309Z,93.39
2022-11-16T09:43:50.992Z,93.59
2022-11-16T09:45:08.740Z,93.27
2022-11-16T09:46:13.611Z,93.85
2022-11-16T09:47:22.283Z,94.53
2022-11-16T09:48:25.445Z,94.84
2022-11-16T09:49:40.950Z,95.26
2022-11-16T09:50:56.791Z,95.50
2022-11-16T09:52:12.926Z,95.54
2022-11-16T09:53:18.424Z,95.92
2022-11-16T09:54:27.215Z,96.09
2022-11-16T09:55:43.512Z,95.72
2022-11-16T09:56:49.083Z,95.61
2022-11-16T09:57:55.662Z,95.81
2022-11-16T09:59:12.237Z,96.34
2022-11-16T10:00:22.780Z,96.62
2022-11-16T10:01:40.101Z,96.68
2022-11-16T10:02:47.812Z,96.95
2022-11-16T10:03:55.750Z,97.22
2022-11-16T10:05:04.759Z,97.22
2022-11-16T10:06:16.247Z,96.79
2022-11-16T10:07:27.835Z,96.61
2022-11-16T10:08:33.060Z,96.35
2022-11-16T10:09:36.232Z,96.71
2022-11-16T10:11:11.773Z,96.70
2022-11-16T10:12:22.890Z,96.80
2022-11-16T10:13:37.338Z,96.32
2022-11-16T10:14:48.713Z,96.62
2022-11-16T10:16:13.690Z,96.33
2022-11-16T10:17:24.883Z,95.75
2022-11-16T10:18:50.128Z,95.50
2022-11-16T10:20:19.725Z,96.05
2022-11-16T10:21:40.466Z,96.62
2022-11-16T10:23:18.495Z,96.60
2022-11-16T10:24:53.624Z,96.18
2022-11-16T10:26:32.197Z,96.33
2022-11-16T10:28:02.736Z,95.63
2022-11-16T10:29:23.205Z,95.54
2022-11-16T10:30:25.406Z,94.95
2022-11-16T10:31:54.947Z,94.75
2022-11-16T10:33:10.854Z,95.60
2022-11-16T10:34:29.827Z,95.62
2022-11-16T10:35:44.301Z,95.50
2022-11-16T10:36:46.455Z,95.80
2022-11-16T10:37:50.711Z,95.80
2022-11-16T10:38:55.480Z,96.15
2022-11-16T10:39:58.085Z,95.95
2022-11-16T10:41:14.201Z,96.25
2022-11-16T10:42:41.768Z,96.52
2022-11-16T10:43:45.566Z,96.61
2022-11-16T10:44:55.189Z,96.31
2022-11-16T10:46:09.304Z,96.18
2022-11-16T10:47:38.743Z,96.12
2022-11-16T10:49:03.652Z,96.03
2022-11-16T10:50:32.391Z,96.15
2022-11-16T10:51:34.749Z,95.99
2022-11-16T10:52:37.007Z,95.81
2022-11-16T10:53:41.776Z,95.15
2022-11-16T10:54:44.545Z,95.16
2022-11-16T10:56:02.481Z,95.08
2022-11-16T10:57:13.890Z,95.14
2022-11-16T10:58:16.168Z,95.56
2022-11-16T10:59:19.833Z,96.24
2022-11-16T11:00:48.193Z,96.05
2022-11-16T11:01:53.320Z,95.93
2022-11-16T11:02:55.528Z,95.48
2022-11-16T11:03:57.903Z,95.06
2022-11-16T11:05:23.155Z,94.12
2022-11-16T11:06:26.559Z,94.03
2022-11-16T11:07:33.639Z,93.84
2022-11-16T11:08:36.020Z,93.18
2022-11-16T11:09:41.718Z,93.10
2022-11-16T11:10:58.702Z,92.79
2022-11-16T11:12:22.445Z,92.46
2022-11-16T11:13:27.685Z,93.02
2022-11-16T11:14:32.526Z,93.67
2022-11-16T11:15:35.195Z,94.14
2022-11-16T11:16:38.076Z,93.96
2022-11-16T11:17:42.863Z,93.48
2022-11-16T11:18:45.616Z,93.45
2022-11-16T11:19:57.238Z,93.67
2022-11-16T11:21:08.070Z,93.44
2022-11-16T11:22:13.340Z,93.05
2022-11-16T11:23:25.109Z,92.75
2022-11-16T11:24:43.252Z,92.71
2022-11-16T11:25:53.248Z,92.70
2022-11-16T11:26:59.261Z,92.41
2022-11-16T11:28:22.875Z,91.26
2022-11-16T11:29:31.972Z,90.78
2022-11-16T11:30:35.309Z,91.79
2022-11-16T11:31:47.201Z,93.31
2022-11-16T11:32:50.410Z,94.09
2022-11-16T11:34:00.729Z,94.29
2022-11-16T11:35:03.597Z,94.17
2022-11-16T11:36:18.795Z,94.54
2022-11-16T11:37:34.795Z,94.48
2022-11-16T11:39:00.153Z,93.98
2022-11-16T11:40:23.584Z,94.15
2022-11-16T11:41:32.461Z,93.37
2022-11-16T11:42:34.728Z,93.42
2022-11-16T11:43:37.611Z,93.30
2022-11-16T11:44:54.464Z,93.50
2022-11-16T11:46:02.949Z,94.16
2022-11-16T11:48:41.522Z,94.30
2022-11-16T11:49:50.136Z,94.40
2022-11-16T11:51:02.803Z,94.25
2022-11-16T11:52:26.477Z,93.82
2022-11-16T11:53:47.455Z,93.00
2022-11-16T11:54:50.169Z,92.74
2022-11-16T11:55:57.125Z,91.90
2022-11-16T11:57:03.122Z,91.84
2022-11-16T11:58:06.728Z,92.25
2022-11-16T11:59:15.481Z,92.71
2022-11-16T12:00:18.378Z,92.64
2022-11-16T12:01:51.617Z,92.85
2022-11-16T12:03:12.069Z,92.49
2022-11-16T12:04:44.543Z,92.69
2022-11-16T12:06:28.152Z,92.59
2022-11-16T12:07:46.547Z,93.34
2022-11-16T12:09:00.839Z,92.92
2022-11-16T12:10:12.139Z,92.63
2022-11-16T12:11:34.458Z,92.83
2022-11-16T12:13:13.905Z,92.74
2022-11-16T12:14:16.329Z,92.56
2022-11-16T12:15:45.447Z,93.44
2022-11-16T12:16:53.699Z,92.97
2022-11-16T12:18:04.765Z,92.57
2022-11-16T12:19:33.499Z,93.09
2022-11-16T12:21:01.099Z,93.03
2022-11-16T12:22:09.018Z,93.39
2022-11-16T12:23:30.564Z,93.18
2022-11-16T12:24:35.622Z,93.22
2022-11-16T12:25:40.717Z,93.33
2022-11-16T12:26:46.151Z,92.96
2022-11-16T12:28:08.908Z,92.25
2022-11-16T12:29:37.180Z,91.72
2022-11-16T12:31:01.634Z,91.75
2022-11-16T12:32:27.638Z,91.96
2022-11-16T12:33:33.090Z,91.89
2022-11-16T12:34:41.277Z,91.36
2022-11-16T12:36:12.167Z,91.14
2022-11-16T12:37:14.490Z,90.95
2022-11-16T12:38:34.692Z,90.63
2022-11-16T12:40:09.981Z,90.94
2022-11-16T12:41:31.557Z,91.58
2022-11-16T12:42:56.121Z,92.17
2022-11-16T12:44:05.165Z,92.54
2022-11-16T12:45:37.942Z,93.41
2022-11-16T12:47:04.262Z,94.02
2022-11-16T12:48:31.147Z,93.71
2022-11-16T12:50:01.106Z,93.57
2022-11-16T12:51:09.388Z,93.01
2022-11-16T12:52:34.136Z,92.57
2022-11-16T12:53:58.242Z,92.22
2022-11-16T12:55:26.937Z,92.28
2022-11-16T12:56:48.895Z,92.38
2022-11-16T12:58:26.716Z,93.00
2022-11-16T12:59:47.211Z,93.17
2022-11-16T13:01:02.857Z,93.44
2022-11-16T13:02:30.032Z,93.46
2022-11-16T13:03:32.615Z,93.66
2022-11-16T13:04:47.272Z,93.38
2022-11-16T13:06:39.989Z,92.71
2022-11-16T13:08:12.709Z,92.92
2022-11-16T13:09:36.058Z,94.04
2022-11-16T13:10:43.075Z,94.68
2022-11-16T13:11:54.778Z,94.70
2022-11-16T13:13:36.442Z,94.69
2022-11-16T13:14:48.169Z,94.13
2022-11-16T13:15:52.662Z,94.40
2022-11-16T13:16:57.165Z,94.50
2022-11-16T13:18:01.716Z,94.08
2022-11-16T13:19:06.889Z,93.41
2022-11-16T13:20:45.904Z,92.85
2022-11-16T13:21:55.928Z,92.81
2022-11-16T13:23:18.286Z,92.87
2022-11-16T13:24:26.341Z,93.00
2022-11-16T13:26:00.607Z,93.96
2022-11-16T13:27:23.835Z,94.32
2022-11-16T13:28:36.413Z,93.86
2022-11-16T13:29:50.797Z,93.04
2022-11-16T13:31:19.094Z,92.58
2022-11-16T13:32:34.823Z,92.48
2022-11-16T13:33:51.323Z,92.34
2022-11-16T13:34:54.079Z,93.12
2022-11-16T13:35:56.262Z,93.48
2022-11-16T13:36:58.659Z,93.43
2022-11-16T13:38:01.001Z,92.92
2022-11-16T13:39:04.935Z,92.32
2022-11-16T13:40:07.078Z,92.04
2022-11-16T13:41:36.399Z,92.53
2022-11-16T13:43:00.726Z,92.73
2022-11-16T13:44:10.925Z,92.34
2022-11-16T13:45:21.817Z,92.52
2022-11-16T13:46:57.096Z,92.46
2022-11-16T13:47:58.882Z,92.45
2022-11-16T13:49:01.284Z,92.67
2022-11-16T13:50:06.878Z,92.75
2022-11-16T13:51:18.838Z,93.19
2022-11-16T13:52:24.143Z,93.27
2022-11-16T13:55:15.743Z,92.79
2022-11-16T13:56:25.565Z,92.29
2022-11-16T13:57:34.938Z,91.95
2022-11-16T13:58:44.154Z,91.96
2022-11-16T13:59:48.434Z,91.58
2022-11-16T14:01:16.873Z,91.67
2022-11-16T14:02:36.205Z,91.91
2022-11-16T14:03:40.412Z,92.76
2022-11-16T14:04:56.202Z,92.80
2022-11-16T14:05:58.505Z,92.27
2022-11-16T14:07:01.132Z,92.19
2022-11-16T14:08:37.112Z,92.57
2022-11-16T14:09:49.335Z,92.74
2022-11-16T14:10:51.639Z,92.96
2022-11-16T14:11:53.831Z,93.28
2022-11-16T14:12:57.089Z,93.27
2022-11-16T14:14:01.528Z,93.16
2022-11-16T14:15:15.225Z,93.16
2022-11-16T14:16:20.088Z,92.82
2022-11-16T14:17:50.185Z,92.66
2022-11-16T14:18:53.816Z,92.93
2022-11-16T14:19:56.236Z,92.30
2022-11-16T14:21:43.499Z,93.23
2022-11-16T14:23:17.825Z,93.33
2022-11-16T14:24:29.591Z,92.50
2022-11-16T14:25:40.787Z,92.75
2022-11-16T14:27:01.820Z,93.19
2022-11-16T14:28:06.572Z,92.68
2022-11-16T14:29:39.210Z,92.58
2022-11-16T14:31:10.048Z,92.53
2022-11-16T14:32:28.987Z,92.21
2022-11-16T14:33:34.917Z,92.25
2022-11-16T14:34:43.489Z,92.28
2022-11-16T14:35:52.591Z,91.84
2022-11-16T14:36:55.296Z,91.31
2022-11-16T14:38:00.846Z,92.12
2022-11-16T14:39:25.884Z,92.76
2022-11-16T14:40:28.652Z,92.97
2022-11-16T14:41:30.932Z,93.04
2022-11-16T14:42:54.725Z,93.16
2022-11-16T14:44:00.879Z,92.97
2022-11-16T14:45:16.074Z,93.19
2022-11-16T14:46:35.533Z,92.68
2022-11-16T14:47:39.101Z,93.13
2022-11-16T14:48:46.397Z,92.99
2022-11-16T14:49:48.966Z,92.59
2022-11-16T14:51:11.350Z,92.59
2022-11-16T14:52:16.365Z,92.30
2022-11-16T14:53:20.372Z,91.79
2022-11-16T14:54:45.563Z,91.61
2022-11-16T14:55:47.721Z,91.23
2022-11-16T14:57:00.459Z,91.17
2022-11-16T14:58:22.230Z,91.25
2022-11-16T14:59:24.993Z,91.24
2022-11-16T15:00:30.190Z,91.37
2022-11-16T15:01:42.321Z,91.41